createdAt,value
2018-11-23T00:00:35.084Z,19.27
2018-11-23T00:03:03.947Z,17.60
2018-11-23T00:05:32.728Z,17.30
2018-11-23T00:08:01.573Z,17.83
2018-11-23T00:10:31.671Z,17.43
2018-11-23T00:13:00.482Z,18.53
2018-11-23T00:15:29.288Z,19.03
2018-11-23T00:17:58.079Z,17.73
2018-11-23T00:20:27.873Z,18.67
2018-11-23T00:22:56.692Z,18.67
2018-11-23T00:25:26.124Z,18.87
2018-11-23T00:27:55.290Z,18.00
2018-11-23T00:30:25.302Z,17.90
2018-11-23T00:32:54.427Z,19.27
2018-11-23T00:35:24.619Z,19.47
2018-11-23T00:37:53.886Z,20.27
2018-11-23T00:40:29.905Z,17.43
2018-11-23T00:42:58.925Z,16.43
2018-11-23T00:45:27.725Z,19.03
2018-11-23T00:47:57.241Z,17.63
2018-11-23T00:50:26.562Z,17.87
2018-11-23T00:52:56.420Z,21.07
2018-11-23T00:55:26.085Z,18.57
2018-11-23T00:57:54.910Z,20.07
2018-11-23T01:00:30.755Z,18.30
2018-11-23T01:03:00.183Z,19.00
2018-11-23T01:05:29.006Z,18.63
2018-11-23T01:07:57.811Z,17.07
2018-11-23T01:10:27.683Z,20.67
2018-11-23T01:12:57.197Z,17.60
2018-11-23T01:15:25.982Z,18.60
2018-11-23T01:17:54.790Z,16.23
2018-11-23T01:20:24.822Z,17.00
2018-11-23T01:22:54.261Z,15.40
2018-11-23T01:25:23.973Z,16.43
2018-11-23T01:27:53.521Z,17.17
2018-11-23T01:30:23.660Z,16.63
2018-11-23T01:32:52.492Z,18.20
2018-11-23T01:35:21.292Z,17.17
2018-11-23T01:37:50.093Z,17.10
2018-11-23T01:40:20.173Z,15.63
2018-11-23T01:42:49.337Z,17.33
2018-11-23T01:45:18.191Z,16.43
2018-11-23T01:47:47.018Z,17.87
2018-11-23T01:50:20.749Z,16.93
2018-11-23T01:52:50.322Z,15.13
2018-11-23T01:55:19.837Z,15.30
2018-11-23T01:57:48.769Z,16.77
2018-11-23T02:00:21.762Z,17.43
2018-11-23T02:02:51.218Z,17.93
2018-11-23T02:05:19.999Z,15.23
2018-11-23T02:07:48.785Z,15.63
2018-11-23T02:10:18.191Z,16.93
2018-11-23T02:12:46.993Z,16.13
2018-11-23T02:15:17.758Z,16.50
2018-11-23T02:17:46.909Z,16.73
2018-11-23T02:20:16.842Z,19.63
2018-11-23T02:22:45.655Z,18.27
2018-11-23T02:25:14.447Z,17.90
2018-11-23T02:27:43.233Z,18.73
2018-11-23T02:30:17.007Z,18.37
2018-11-23T02:32:48.738Z,18.07
2018-11-23T02:35:18.030Z,16.47
2018-11-23T02:37:46.866Z,16.67
2018-11-23T02:40:16.823Z,17.03
2018-11-23T02:42:45.761Z,16.80
2018-11-23T02:45:16.432Z,17.23
2018-11-23T02:47:45.797Z,15.57
2018-11-23T02:50:14.621Z,14.13
2018-11-23T02:52:43.848Z,15.77
2018-11-23T02:55:13.803Z,16.20
2018-11-23T02:57:42.621Z,18.33
2018-11-23T03:00:16.500Z,18.17
2018-11-23T03:02:45.292Z,17.30
2018-11-23T03:05:15.773Z,17.77
2018-11-23T03:07:44.687Z,18.57
2018-11-23T03:10:14.420Z,18.20
2018-11-23T03:12:43.812Z,18.67
2018-11-23T03:15:14.481Z,21.53
2018-11-23T03:17:43.808Z,19.40
2018-11-23T03:20:16.878Z,18.80
2018-11-23T03:22:45.680Z,17.83
2018-11-23T03:25:14.879Z,18.30
2018-11-23T03:27:43.669Z,17.17
2018-11-23T03:30:14.992Z,18.83
2018-11-23T03:32:44.452Z,16.23
2018-11-23T03:35:13.297Z,15.97
2018-11-23T03:37:42.282Z,17.10
2018-11-23T03:40:11.093Z,15.77
2018-11-23T03:42:39.983Z,14.60
2018-11-23T03:45:10.192Z,15.63
2018-11-23T03:47:39.243Z,16.70
2018-11-23T03:50:08.860Z,16.97
2018-11-23T03:52:37.683Z,18.13
2018-11-23T03:55:06.518Z,18.57
2018-11-23T03:57:35.572Z,16.80
2018-11-23T04:00:16.889Z,18.27
2018-11-23T04:02:39.114Z,17.37
2018-11-23T04:05:07.998Z,17.73
2018-11-23T04:07:36.798Z,19.53
2018-11-23T04:10:07.024Z,19.90
2018-11-23T04:12:35.819Z,21.43
2018-11-23T04:15:04.885Z,21.60
2018-11-23T04:17:33.682Z,20.17
2018-11-23T04:20:02.523Z,19.47
2018-11-23T04:22:31.342Z,19.13
2018-11-23T04:25:00.142Z,20.67
2018-11-23T04:27:28.927Z,20.43
2018-11-23T04:29:57.736Z,21.33
2018-11-23T04:32:26.530Z,17.50
2018-11-23T04:34:55.370Z,16.90
2018-11-23T04:37:24.239Z,16.03
2018-11-23T04:39:53.067Z,16.33
2018-11-23T04:42:21.902Z,17.73
2018-11-23T04:44:50.738Z,17.70
2018-11-23T04:47:19.537Z,17.03
2018-11-23T04:49:48.343Z,16.47
2018-11-23T04:52:17.179Z,17.77
2018-11-23T04:54:45.981Z,17.30
2018-11-23T04:57:14.794Z,15.53
2018-11-23T04:59:43.591Z,17.10
2018-11-23T05:02:12.405Z,17.90
2018-11-23T05:04:41.213Z,17.50
2018-11-23T05:07:10.008Z,16.07
2018-11-23T05:09:38.821Z,18.00
2018-11-23T05:12:07.643Z,17.47
2018-11-23T05:14:36.443Z,14.50
2018-11-23T05:17:05.340Z,18.20
2018-11-23T05:19:34.149Z,17.23
2018-11-23T05:22:05.735Z,20.03
2018-11-23T05:24:36.933Z,14.53
2018-11-23T05:27:09.589Z,16.17
2018-11-23T05:29:56.349Z,19.07
2018-11-23T05:35:57.506Z,17.50
2018-11-23T05:38:50.880Z,18.27
2018-11-23T05:41:45.263Z,16.53
2018-11-23T05:44:26.061Z,18.80
2018-11-23T05:49:54.159Z,20.83
2018-11-23T05:52:44.390Z,19.40
2018-11-23T05:55:47.656Z,19.93
2018-11-23T05:58:38.361Z,20.97
2018-11-23T06:01:17.766Z,18.53
2018-11-23T06:07:14.601Z,19.93
2018-11-23T06:10:04.782Z,18.87
2018-11-23T06:15:57.036Z,17.93
2018-11-23T06:18:30.769Z,15.53
2018-11-23T06:21:05.774Z,15.93
2018-11-23T06:23:47.638Z,18.20
2018-11-23T06:26:30.832Z,16.90
2018-11-23T06:29:38.894Z,19.27
2018-11-23T06:32:47.776Z,17.93
2018-11-23T06:35:39.908Z,16.03
2018-11-23T06:38:15.583Z,18.07
2018-11-23T06:44:00.047Z,17.97
2018-11-23T06:46:38.024Z,19.43
2018-11-23T06:49:08.872Z,19.20
2018-11-23T06:51:58.776Z,22.10
2018-11-23T06:54:33.430Z,20.47
2018-11-23T06:57:22.285Z,18.43
2018-11-23T06:59:58.260Z,20.17
2018-11-23T07:02:27.766Z,17.80
2018-11-23T07:04:58.227Z,19.17
2018-11-23T07:07:27.945Z,18.83
2018-11-23T07:10:00.647Z,17.43
2018-11-23T07:12:37.477Z,17.83
2018-11-23T07:15:47.396Z,18.47
2018-11-23T07:18:46.283Z,16.90
2018-11-23T07:27:41.484Z,17.87
2018-11-23T07:30:12.337Z,16.57
2018-11-23T07:32:41.128Z,16.93
2018-11-23T07:35:09.955Z,17.53
2018-11-23T07:37:38.860Z,17.47
2018-11-23T07:40:46.514Z,17.67
2018-11-23T07:43:15.324Z,15.57
2018-11-23T07:45:44.111Z,15.03
2018-11-23T07:48:12.918Z,14.20
2018-11-23T07:50:41.756Z,16.03
2018-11-23T07:53:10.543Z,16.13
2018-11-23T07:55:42.340Z,15.10
2018-11-23T07:58:11.277Z,16.13
2018-11-23T08:00:40.108Z,17.50
2018-11-23T08:03:08.911Z,18.10
2018-11-23T08:05:37.757Z,17.93
2018-11-23T08:08:06.654Z,16.23
2018-11-23T08:10:34.737Z,17.30
2018-11-23T08:13:03.644Z,15.83
2018-11-23T08:15:35.627Z,16.03
2018-11-23T08:18:04.428Z,17.30
2018-11-23T08:20:33.566Z,19.57
2018-11-23T08:23:11.223Z,16.33
2018-11-23T08:25:45.944Z,17.33
2018-11-23T08:28:17.063Z,18.20
2018-11-23T08:30:50.251Z,18.03
2018-11-23T08:34:08.817Z,31.80
2018-11-23T08:36:40.987Z,35.63
2018-11-23T08:39:10.715Z,28.73
2018-11-23T08:41:40.202Z,24.10
2018-11-23T08:44:09.101Z,21.47
2018-11-23T08:46:38.076Z,21.30
2018-11-23T08:49:10.627Z,21.70
2018-11-23T08:52:08.645Z,21.40
2018-11-23T08:54:38.250Z,22.80
2018-11-23T08:57:09.068Z,20.80
2018-11-23T08:59:37.931Z,24.07
2018-11-23T09:02:06.924Z,21.63
2018-11-23T09:04:36.243Z,22.50
2018-11-23T09:07:06.299Z,24.10
2018-11-23T09:09:35.974Z,21.10
2018-11-23T09:12:05.484Z,20.50
2018-11-23T09:14:34.422Z,22.50
2018-11-23T09:17:04.537Z,21.83
2018-11-23T09:19:35.572Z,20.83
2018-11-23T09:22:04.512Z,19.77
2018-11-23T09:24:35.792Z,20.60
2018-11-23T09:27:05.120Z,18.10
2018-11-23T09:29:38.822Z,19.97
2018-11-23T09:32:08.064Z,21.03
2018-11-23T09:34:37.223Z,19.87
2018-11-23T09:37:06.116Z,18.63
2018-11-23T09:39:35.324Z,17.27
2018-11-23T09:42:05.485Z,20.40
2018-11-23T09:44:34.593Z,20.03
2018-11-23T09:47:09.990Z,18.27
2018-11-23T09:49:34.118Z,21.37
2018-11-23T09:52:03.269Z,17.63
2018-11-23T09:54:33.459Z,18.23
2018-11-23T09:57:02.362Z,18.00
2018-11-23T09:59:32.350Z,20.87
2018-11-23T10:02:01.586Z,18.67
2018-11-23T10:04:30.470Z,19.90
2018-11-23T10:07:00.110Z,18.57
2018-11-23T10:09:33.505Z,18.30
2018-11-23T10:12:02.680Z,22.00
2018-11-23T10:14:31.865Z,19.00
2018-11-23T10:17:01.043Z,17.50
2018-11-23T10:19:33.413Z,18.93
2018-11-23T10:22:02.664Z,17.60
2018-11-23T10:24:32.621Z,19.37
2018-11-23T10:27:03.819Z,17.20
2018-11-23T10:29:32.992Z,16.73
2018-11-23T10:32:03.223Z,20.00
2018-11-23T10:34:32.853Z,18.00
2018-11-23T10:37:01.742Z,19.63
2018-11-23T10:39:32.733Z,20.80
2018-11-23T10:42:01.613Z,19.43
2018-11-23T10:44:30.753Z,20.23
2018-11-23T10:47:00.243Z,18.97
2018-11-23T10:49:29.671Z,18.63
2018-11-23T10:51:58.882Z,17.67
2018-11-23T10:54:27.763Z,18.30
2018-11-23T10:56:57.284Z,17.10
2018-11-23T10:59:26.682Z,16.43
2018-11-23T11:02:13.600Z,18.03
2018-11-23T11:05:00.648Z,16.93
2018-11-23T11:07:31.813Z,18.57
2018-11-23T11:10:32.580Z,16.97
2018-11-23T11:13:02.735Z,19.93
2018-11-23T11:15:34.328Z,22.03
2018-11-23T11:18:03.832Z,18.70
2018-11-23T11:20:33.015Z,18.27
2018-11-23T11:23:05.561Z,20.53
2018-11-23T11:25:34.971Z,19.03
2018-11-23T11:28:05.824Z,18.67
2018-11-23T11:30:50.156Z,17.37
2018-11-23T11:33:40.210Z,16.63
2018-11-23T11:36:11.791Z,16.93
2018-11-23T11:38:43.567Z,17.10
2018-11-23T11:41:17.552Z,17.27
2018-11-23T11:43:48.495Z,18.23
2018-11-23T11:46:32.721Z,19.50
2018-11-23T11:49:04.714Z,15.60
2018-11-23T11:51:34.947Z,16.80
2018-11-23T11:54:05.062Z,15.23
2018-11-23T11:56:39.204Z,17.23
2018-11-23T11:59:13.547Z,16.07
2018-11-23T12:01:44.429Z,17.23
2018-11-23T12:04:14.824Z,18.50
2018-11-23T12:06:43.981Z,18.47
2018-11-23T12:09:13.109Z,17.23
2018-11-23T12:11:42.291Z,17.97
2018-11-23T12:14:11.689Z,18.67
2018-11-23T12:16:43.302Z,17.43
2018-11-23T12:19:13.217Z,18.47
2018-11-23T12:21:43.152Z,15.67
2018-11-23T12:24:16.170Z,15.10
2018-11-23T12:26:45.393Z,17.90
2018-11-23T12:29:35.820Z,16.70
2018-11-23T12:32:14.174Z,16.47
2018-11-23T12:34:44.382Z,18.07
2018-11-23T12:37:33.759Z,19.10
2018-11-23T12:40:04.393Z,17.70
2018-11-23T12:42:40.595Z,16.33
2018-11-23T12:48:39.697Z,17.97
2018-11-23T12:51:10.943Z,18.00
2018-11-23T12:53:40.124Z,17.13
2018-11-23T12:56:09.995Z,18.07
2018-11-23T12:58:56.942Z,19.27
2018-11-23T13:01:29.896Z,16.00
2018-11-23T13:04:06.959Z,17.10
2018-11-23T13:06:38.220Z,18.70
2018-11-23T13:09:28.677Z,20.33
2018-11-23T13:11:58.831Z,16.73
2018-11-23T13:15:26.820Z,17.93
2018-11-23T13:17:57.346Z,15.83
2018-11-23T13:20:31.064Z,18.90
2018-11-23T13:23:02.903Z,17.60
2018-11-23T13:25:34.511Z,18.17
2018-11-23T13:28:11.041Z,18.33
2018-11-23T13:30:42.585Z,18.13
2018-11-23T13:33:27.026Z,16.83
2018-11-23T13:35:55.907Z,17.27
2018-11-23T13:38:25.092Z,19.30
2018-11-23T13:40:59.657Z,17.90
2018-11-23T13:43:37.080Z,18.03
2018-11-23T13:46:19.134Z,16.93
2018-11-23T13:48:53.401Z,19.30
2018-11-23T13:51:28.424Z,18.57
2018-11-23T13:53:57.977Z,16.73
2018-11-23T13:56:28.992Z,18.60
2018-11-23T13:59:05.610Z,18.03
2018-11-23T14:01:35.579Z,16.37
2018-11-23T14:04:06.138Z,21.07
2018-11-23T14:06:35.716Z,17.30
2018-11-23T14:09:10.341Z,16.80
2018-11-23T14:11:40.958Z,20.67
2018-11-23T14:14:10.641Z,21.13
2018-11-23T14:16:41.356Z,17.63
2018-11-23T14:19:10.233Z,19.37
2018-11-23T14:21:42.359Z,19.20
2018-11-23T14:24:11.284Z,22.23
2018-11-23T14:26:40.467Z,18.23
2018-11-23T14:29:10.083Z,20.20
2018-11-23T14:31:40.042Z,19.67
2018-11-23T14:34:09.217Z,19.83
2018-11-23T14:36:40.285Z,20.17
2018-11-23T14:39:13.101Z,18.77
2018-11-23T14:41:44.188Z,19.33
2018-11-23T14:44:56.114Z,20.90
2018-11-23T14:47:29.266Z,18.83
2018-11-23T14:50:34.290Z,19.10
2018-11-23T14:53:09.951Z,18.57
2018-11-23T14:55:43.613Z,22.50
2018-11-23T14:58:12.565Z,19.50
2018-11-23T15:00:51.839Z,18.83
2018-11-23T15:03:25.122Z,19.40
2018-11-23T15:05:56.912Z,19.67
2018-11-23T15:08:33.027Z,19.27
2018-11-23T15:11:27.270Z,21.23
2018-11-23T15:14:10.507Z,19.90
2018-11-23T15:16:40.327Z,19.07
2018-11-23T15:19:14.114Z,20.87
2018-11-23T15:21:45.363Z,19.90
2018-11-23T15:24:17.491Z,20.50
2018-11-23T15:26:47.191Z,21.17
2018-11-23T15:29:16.365Z,24.87
2018-11-23T15:31:45.268Z,20.77
2018-11-23T15:34:14.155Z,22.90
2018-11-23T15:36:44.654Z,19.60
2018-11-23T15:39:39.052Z,22.97
2018-11-23T15:42:07.890Z,22.13
2018-11-23T15:44:37.048Z,23.27
2018-11-23T15:47:07.414Z,21.73
2018-11-23T15:49:36.373Z,24.33
2018-11-23T15:52:09.178Z,21.73
2018-11-23T15:54:38.071Z,21.93
2018-11-23T15:57:07.092Z,20.67
2018-11-23T15:59:58.670Z,22.97
2018-11-23T16:03:39.571Z,21.40
2018-11-23T16:06:44.757Z,21.90
2018-11-23T16:09:33.844Z,23.57
2018-11-23T16:12:14.877Z,24.37
2018-11-23T16:14:48.024Z,20.47
2018-11-23T16:18:15.676Z,21.90
2018-11-23T16:21:32.060Z,23.87
2018-11-23T16:28:05.789Z,21.00
2018-11-23T16:30:50.190Z,24.63
2018-11-23T16:33:21.640Z,23.03
2018-11-23T16:35:59.373Z,22.40
2018-11-23T16:38:36.207Z,23.97
2018-11-23T16:41:09.095Z,23.90
2018-11-23T16:46:48.336Z,21.33
2018-11-23T16:49:27.330Z,21.33
2018-11-23T16:51:59.645Z,22.07
2018-11-23T16:54:29.919Z,21.73
2018-11-23T16:57:04.567Z,22.97
2018-11-23T16:59:38.101Z,23.67
2018-11-23T17:02:26.697Z,21.80
2018-11-23T17:04:57.265Z,23.63
2018-11-23T17:07:32.808Z,23.17
2018-11-23T17:10:03.310Z,22.57
2018-11-23T17:12:55.525Z,21.37
2018-11-23T17:15:29.797Z,22.57
2018-11-23T17:17:58.578Z,23.93
2018-11-23T17:20:40.849Z,25.33
2018-11-23T17:23:12.409Z,24.47
2018-11-23T17:25:50.438Z,22.10
2018-11-23T17:28:27.976Z,23.27
2018-11-23T17:31:02.196Z,24.17
2018-11-23T17:33:35.940Z,22.37
2018-11-23T17:39:10.715Z,23.13
2018-11-23T17:41:40.575Z,22.87
2018-11-23T17:44:33.942Z,24.33
2018-11-23T17:47:13.362Z,22.27
2018-11-23T17:49:45.149Z,23.57
2018-11-23T17:52:34.517Z,22.00
2018-11-23T17:55:04.363Z,22.10
2018-11-23T17:57:33.229Z,21.37
2018-11-23T18:00:02.486Z,25.80
2018-11-23T18:02:31.408Z,25.70
2018-11-23T18:05:07.179Z,24.30
2018-11-23T18:07:30.024Z,23.70
2018-11-23T18:09:58.877Z,26.47
2018-11-23T18:12:27.765Z,22.30
2018-11-23T18:14:56.639Z,25.40
2018-11-23T18:17:25.574Z,22.43
2018-11-23T18:19:55.740Z,22.60
2018-11-23T18:22:24.864Z,23.53
2018-11-23T18:24:53.756Z,21.77
2018-11-23T18:27:22.640Z,22.97
2018-11-23T18:29:52.573Z,22.67
2018-11-23T18:32:21.493Z,23.57
2018-11-23T18:34:51.075Z,26.53
2018-11-23T18:37:21.011Z,22.80
2018-11-23T18:39:49.878Z,23.30
2018-11-23T18:42:19.868Z,23.10
2018-11-23T18:44:48.748Z,22.03
2018-11-23T18:47:17.992Z,22.00
2018-11-23T18:49:46.880Z,25.07
2018-11-23T18:52:15.821Z,20.73
2018-11-23T18:54:45.037Z,24.30
2018-11-23T18:57:14.303Z,24.10
2018-11-23T18:59:43.269Z,21.57
2018-11-23T19:02:14.102Z,24.63
2018-11-23T19:04:44.058Z,23.33
2018-11-23T19:07:14.754Z,22.03
2018-11-23T19:09:45.655Z,26.30
2018-11-23T19:12:15.222Z,23.93
2018-11-23T19:14:44.745Z,23.97
2018-11-23T19:17:19.161Z,25.83
2018-11-23T19:19:56.587Z,22.97
2018-11-23T19:22:24.294Z,24.00
2018-11-23T19:25:15.448Z,24.47
2018-11-23T19:27:44.403Z,24.37
2018-11-23T19:30:17.389Z,25.30
2018-11-23T19:32:46.279Z,24.73
2018-11-23T19:35:40.304Z,24.43
2018-11-23T19:38:10.384Z,25.03
2018-11-23T19:40:42.216Z,24.07
2018-11-23T19:43:15.331Z,24.87
2018-11-23T19:45:48.267Z,24.00
2018-11-23T19:48:19.685Z,24.27
2018-11-23T19:50:48.601Z,25.50
2018-11-23T19:53:17.511Z,25.77
2018-11-23T19:55:47.075Z,26.33
2018-11-23T19:58:16.024Z,22.97
2018-11-23T20:00:46.581Z,25.90
2018-11-23T20:03:16.190Z,26.47
2018-11-23T20:05:45.062Z,28.87
2018-11-23T20:08:14.529Z,24.93
2018-11-23T20:11:07.536Z,26.07
2018-11-23T20:13:44.749Z,27.30
2018-11-23T20:16:13.927Z,28.23
2018-11-23T20:18:44.548Z,28.17
2018-11-23T20:21:16.143Z,25.63
2018-11-23T20:23:53.117Z,26.73
2018-11-23T20:26:25.242Z,25.70
2018-11-23T20:28:57.952Z,21.47
2018-11-23T20:31:49.809Z,25.67
2018-11-23T20:34:19.684Z,25.63
2018-11-23T20:36:52.186Z,26.20
2018-11-23T20:39:22.905Z,27.90
2018-11-23T20:41:57.582Z,26.50
2018-11-23T20:44:36.605Z,28.37
2018-11-23T20:47:07.503Z,27.43
2018-11-23T20:49:36.341Z,27.70
2018-11-23T20:52:08.531Z,29.53
2018-11-23T20:54:38.535Z,28.97
2018-11-23T20:57:11.798Z,26.40
2018-11-23T20:59:43.318Z,27.97
2018-11-23T21:02:12.954Z,26.77
2018-11-23T21:04:42.828Z,25.37
2018-11-23T21:07:28.736Z,25.37
2018-11-23T21:10:24.662Z,28.87
2018-11-23T21:13:14.117Z,25.90
2018-11-23T21:15:47.480Z,26.93
2018-11-23T21:18:21.901Z,28.10
2018-11-23T21:20:53.558Z,30.43
2018-11-23T21:23:23.254Z,32.57
2018-11-23T21:25:52.447Z,32.10
2018-11-23T21:28:26.628Z,33.50
2018-11-23T21:31:05.995Z,32.47
2018-11-23T21:34:24.033Z,31.30
2018-11-23T21:37:33.699Z,35.40
2018-11-23T21:40:48.283Z,31.30
2018-11-23T21:44:24.308Z,35.73
2018-11-23T21:54:36.872Z,32.87
2018-11-23T21:57:56.360Z,33.23
2018-11-23T22:00:37.128Z,32.67
2018-11-23T22:03:10.515Z,35.40
2018-11-23T22:05:43.547Z,36.77
2018-11-23T22:11:23.367Z,36.87
2018-11-23T22:13:52.500Z,36.00
2018-11-23T22:16:21.440Z,36.77
2018-11-23T22:18:50.921Z,35.67
2018-11-23T22:21:20.414Z,33.23
2018-11-23T22:24:10.728Z,35.87
2018-11-23T22:26:41.779Z,37.67
2018-11-23T22:30:16.696Z,34.47
2018-11-23T22:46:42.448Z,35.67
2018-11-23T22:53:24.537Z,33.83
2018-11-23T22:56:47.598Z,34.80
2018-11-23T22:59:59.815Z,35.80
2018-11-23T23:06:22.850Z,35.33
2018-11-23T23:16:54.331Z,35.67
2018-11-23T23:19:23.139Z,35.23
2018-11-23T23:21:51.947Z,36.03
2018-11-23T23:24:23.352Z,38.40
2018-11-23T23:26:49.555Z,38.47
2018-11-23T23:29:22.735Z,40.37
2018-11-23T23:31:51.547Z,36.00
2018-11-23T23:34:20.372Z,39.87
2018-11-23T23:36:49.292Z,38.33
2018-11-23T23:39:18.111Z,35.73
2018-11-23T23:41:46.934Z,37.97
2018-11-23T23:44:16.005Z,38.23
2018-11-23T23:46:44.812Z,40.90
2018-11-23T23:49:13.601Z,38.20
2018-11-23T23:51:42.417Z,38.13
2018-11-23T23:54:11.275Z,39.70
2018-11-23T23:56:40.051Z,37.30
2018-11-23T23:59:08.886Z,38.80
